Time;durP1;ratioP1;P1;durP2;ratioP2;P2;SDS_P1;SDS_P2;PMS_P1;PMS_P2;Temp;Humidity;BMP_temperature;BMP_pressure;BME280_temperature;BME280_humidity;BME280_pressure;Samples;Min_cycle;Max_cycle;Signal;HPM_P1;HPM_P2
2021/08/31 00:02:24;;;;;;;18.97;13.40;;;14.40;1.00;;;;;;5039530;28;20207;-73
2021/08/31 00:04:50;;;;;;;16.50;12.93;;;14.30;99.90;;;;;;5041956;28;20195;-72
2021/08/31 00:07:16;;;;;;;14.50;12.13;;;14.30;99.90;;;;;;5034607;28;20189;-72
2021/08/31 00:09:42;;;;;;;16.70;14.30;;;14.30;99.90;;;;;;5039752;28;20380;-73
2021/08/31 00:12:08;;;;;;;15.77;13.83;;;14.20;99.90;;;;;;5042269;28;20190;-73
2021/08/31 00:14:37;;;;;;;16.03;12.83;;;14.30;99.90;;;;;;5035949;28;20530;-72
2021/08/31 00:17:05;;;;;;;14.53;12.80;;;14.30;99.90;;;;;;5036877;28;20943;-72
2021/08/31 00:19:30;;;;;;;15.67;12.17;;;14.30;99.90;;;;;;5033733;28;20836;-72
2021/08/31 00:21:56;;;;;;;14.00;12.60;;;14.30;99.90;;;;;;5036003;28;20483;-72
2021/08/31 00:24:22;;;;;;;14.33;12.60;;;14.30;99.90;;;;;;5026189;28;20179;-72
2021/08/31 00:26:48;;;;;;;14.83;12.87;;;14.40;99.90;;;;;;5028076;28;20581;-73
2021/08/31 00:29:14;;;;;;;21.20;14.00;;;14.30;99.90;;;;;;5038405;28;20911;-72
2021/08/31 00:31:40;;;;;;;15.87;13.30;;;14.30;99.90;;;;;;5031096;28;20453;-73
2021/08/31 00:34:06;;;;;;;16.30;13.63;;;14.30;99.90;;;;;;5035782;28;20479;-73
2021/08/31 00:36:31;;;;;;;14.13;12.43;;;14.30;99.90;;;;;;5032372;28;20507;-73
2021/08/31 00:38:57;;;;;;;17.00;15.20;;;14.30;99.90;;;;;;5033340;28;20230;-72
2021/08/31 00:41:24;;;;;;;14.93;13.00;;;14.20;99.90;;;;;;5039266;28;20206;-72
2021/08/31 00:43:50;;;;;;;13.40;12.00;;;14.20;99.90;;;;;;5037743;28;20622;-72
2021/08/31 00:46:17;;;;;;;18.30;13.87;;;14.30;99.90;;;;;;5037600;28;20559;-73
2021/08/31 00:48:47;;;;;;;15.60;14.00;;;14.20;99.90;;;;;;5039847;28;20209;-72
2021/08/31 00:51:14;;;;;;;14.50;12.30;;;14.20;99.90;;;;;;5035659;28;20487;-72
2021/08/31 00:53:41;;;;;;;14.93;13.07;;;14.20;99.90;;;;;;5049182;28;20992;-72
2021/08/31 00:56:10;;;;;;;14.43;12.63;;;14.20;1.00;;;;;;5037739;28;20454;-72
2021/08/31 00:58:35;;;;;;;15.10;13.50;;;14.20;99.90;;;;;;5043306;28;20445;-72
2021/08/31 01:01:02;;;;;;;15.97;13.07;;;14.20;1.00;;;;;;5036429;28;20808;-72
2021/08/31 01:03:28;;;;;;;18.40;12.87;;;14.30;99.90;;;;;;5043286;28;20201;-72
2021/08/31 01:05:59;;;;;;;14.90;13.13;;;14.30;1.00;;;;;;5042092;28;20806;-72
2021/08/31 01:08:26;;;;;;;15.83;13.73;;;14.30;99.90;;;;;;5036781;28;20631;-73
2021/08/31 01:10:52;;;;;;;17.73;15.40;;;14.20;99.90;;;;;;5037164;28;21036;-72
2021/08/31 01:13:19;;;;;;;18.10;14.07;;;14.10;99.90;;;;;;5040605;28;20504;-72
2021/08/31 01:15:46;;;;;;;16.50;14.60;;;14.10;99.90;;;;;;5031961;28;20509;-72
2021/08/31 01:18:19;;;;;;;16.53;14.67;;;14.30;99.90;;;;;;5038703;28;20465;-72
2021/08/31 01:20:50;;;;;;;16.63;14.93;;;14.20;99.90;;;;;;5042001;28;20464;-72
2021/08/31 01:23:16;;;;;;;16.63;14.40;;;14.20;99.90;;;;;;5039820;28;21015;-73
2021/08/31 01:25:45;;;;;;;19.00;14.10;;;14.20;99.90;;;;;;5041296;28;20544;-73
2021/08/31 01:28:16;;;;;;;18.87;14.90;;;14.30;99.90;;;;;;5038016;28;20194;-72
2021/08/31 01:30:43;;;;;;;18.77;15.30;;;14.20;99.90;;;;;;5033845;28;20727;-72
2021/08/31 01:33:10;;;;;;;20.73;15.87;;;14.40;53.20;;;;;;5042956;28;20938;-71
2021/08/31 01:35:36;;;;;;;18.00;13.57;;;14.30;99.90;;;;;;5026846;28;20584;-72
2021/08/31 01:38:01;;;;;;;14.90;13.30;;;14.20;99.90;;;;;;5038556;28;21025;-73
2021/08/31 01:40:27;;;;;;;16.70;15.00;;;14.20;99.90;;;;;;5039914;28;20449;-72
2021/08/31 01:42:53;;;;;;;15.17;13.57;;;14.20;99.90;;;;;;5043368;28;20803;-73
2021/08/31 01:45:18;;;;;;;18.93;16.50;;;14.20;99.90;;;;;;5039064;28;20293;-72
2021/08/31 01:47:44;;;;;;;18.13;14.97;;;14.20;99.90;;;;;;5039611;28;21726;-72
2021/08/31 01:50:10;;;;;;;25.53;15.80;;;14.20;99.90;;;;;;5038389;28;20289;-72
2021/08/31 01:52:37;;;;;;;16.87;15.07;;;14.20;99.90;;;;;;5035223;28;20264;-72
2021/08/31 01:55:04;;;;;;;18.83;14.53;;;14.30;99.90;;;;;;5037801;28;20633;-72
2021/08/31 01:57:30;;;;;;;19.63;15.70;;;14.30;99.90;;;;;;5037743;28;20812;-72
2021/08/31 01:59:55;;;;;;;16.63;14.83;;;14.30;99.90;;;;;;5039539;28;20451;-73
2021/08/31 02:02:21;;;;;;;24.43;19.87;;;14.30;99.90;;;;;;5025160;28;21748;-72
2021/08/31 02:04:46;;;;;;;26.77;18.67;;;14.30;99.90;;;;;;5037870;28;20245;-72
2021/08/31 02:07:12;;;;;;;19.53;17.20;;;14.20;99.90;;;;;;5037454;28;20479;-72
2021/08/31 02:09:37;;;;;;;20.80;16.80;;;14.20;99.90;;;;;;5041340;28;20258;-73
2021/08/31 02:12:04;;;;;;;22.83;18.10;;;14.10;99.90;;;;;;5039489;28;20277;-73
2021/08/31 02:14:29;;;;;;;20.00;17.70;;;14.10;99.90;;;;;;5053345;28;20251;-72
2021/08/31 02:16:55;;;;;;;23.27;18.63;;;14.10;99.90;;;;;;5036192;28;20523;-71
2021/08/31 02:19:20;;;;;;;24.67;19.87;;;14.10;99.90;;;;;;5036253;28;20213;-72
2021/08/31 02:21:46;;;;;;;24.57;19.13;;;14.10;99.90;;;;;;5036023;28;20214;-71
2021/08/31 02:24:12;;;;;;;24.10;19.57;;;14.10;99.90;;;;;;5033409;28;20186;-73
2021/08/31 02:26:38;;;;;;;19.00;17.00;;;14.20;99.90;;;;;;5028515;28;20550;-72
2021/08/31 02:29:03;;;;;;;19.20;16.43;;;14.20;99.90;;;;;;5045696;28;20193;-72
2021/08/31 02:31:29;;;;;;;17.50;15.70;;;14.20;99.90;;;;;;5039813;28;20962;-72
2021/08/31 02:33:56;;;;;;;17.97;15.40;;;14.10;99.90;;;;;;5044936;28;20205;-72
2021/08/31 02:36:22;;;;;;;20.90;16.13;;;14.10;99.90;;;;;;5041905;28;21099;-72
2021/08/31 02:38:48;;;;;;;17.37;15.37;;;14.00;99.90;;;;;;5042320;28;20194;-71
2021/08/31 02:41:14;;;;;;;20.27;15.70;;;14.00;99.90;;;;;;5043362;28;20237;-71
2021/08/31 02:43:40;;;;;;;18.40;15.80;;;14.20;99.90;;;;;;5041797;28;22220;-71
2021/08/31 02:46:06;;;;;;;18.80;15.53;;;14.20;99.90;;;;;;5046174;28;20464;-71
2021/08/31 02:48:31;;;;;;;19.60;15.57;;;14.00;99.90;;;;;;5047200;28;20210;-71
2021/08/31 02:50:57;;;;;;;21.03;15.50;;;14.10;99.90;;;;;;5035955;28;20269;-73
2021/08/31 02:53:23;;;;;;;19.53;14.30;;;14.40;99.90;;;;;;5044092;28;21549;-71
2021/08/31 02:55:48;;;;;;;17.80;15.60;;;14.70;99.90;;;;;;5040287;28;20587;-72
2021/08/31 02:58:14;;;;;;;24.13;14.40;;;14.90;99.90;;;;;;5048761;28;20206;-72
2021/08/31 03:00:42;;;;;;;16.97;12.90;;;14.40;1.00;;;;;;5040106;28;21581;-72
2021/08/31 03:03:09;;;;;;;15.80;13.50;;;14.10;23.60;;;;;;5043994;28;20599;-72
2021/08/31 03:05:36;;;;;;;14.03;12.53;;;14.00;1.00;;;;;;5041481;28;20456;-72
2021/08/31 03:08:02;;;;;;;16.97;13.93;;;14.10;99.90;;;;;;5050789;28;20922;-72
2021/08/31 03:10:28;;;;;;;17.93;14.83;;;13.90;99.90;;;;;;5040388;28;20452;-72
2021/08/31 03:12:54;;;;;;;19.30;14.07;;;13.80;1.00;;;;;;5048894;28;20444;-72
2021/08/31 03:15:19;;;;;;;18.87;16.30;;;13.70;99.90;;;;;;5043474;28;20233;-72
2021/08/31 03:17:45;;;;;;;19.47;15.80;;;13.60;12.40;;;;;;5035948;28;20213;-72
2021/08/31 03:20:11;;;;;;;17.37;15.50;;;13.60;63.50;;;;;;5040174;28;20203;-72
2021/08/31 03:22:37;;;;;;;20.20;16.80;;;13.60;99.90;;;;;;5048428;28;20223;-72
2021/08/31 03:25:03;;;;;;;17.23;14.70;;;13.70;99.90;;;;;;5041603;28;20449;-72
2021/08/31 03:27:29;;;;;;;19.17;15.33;;;13.60;99.90;;;;;;5020204;28;20209;-72
2021/08/31 03:29:55;;;;;;;21.60;14.70;;;13.70;99.90;;;;;;5042130;28;20475;-72
2021/08/31 03:32:20;;;;;;;16.70;14.20;;;13.60;99.90;;;;;;5043381;28;20198;-72
2021/08/31 03:34:46;;;;;;;22.90;15.37;;;13.60;99.90;;;;;;5044669;28;20600;-72
2021/08/31 03:37:12;;;;;;;23.03;15.73;;;13.60;99.90;;;;;;5039676;28;20629;-72
2021/08/31 03:39:37;;;;;;;17.73;15.83;;;13.60;99.90;;;;;;5021990;28;20179;-70
2021/08/31 03:42:04;;;;;;;25.10;17.57;;;13.60;99.90;;;;;;5043315;28;20214;-71
2021/08/31 03:44:29;;;;;;;19.37;16.20;;;13.60;99.90;;;;;;5032428;28;20696;-70
2021/08/31 03:46:55;;;;;;;22.70;17.30;;;13.70;99.90;;;;;;5032112;28;20543;-71
2021/08/31 03:49:21;;;;;;;19.13;17.10;;;13.80;99.90;;;;;;5049453;28;22138;-70
2021/08/31 03:51:46;;;;;;;17.50;15.67;;;13.70;99.90;;;;;;5021528;28;20265;-72
2021/08/31 03:54:12;;;;;;;21.27;16.90;;;13.80;99.90;;;;;;5024627;28;20194;-71
2021/08/31 03:56:37;;;;;;;18.03;16.13;;;13.90;99.90;;;;;;5038573;28;20195;-71
2021/08/31 03:59:03;;;;;;;20.77;17.70;;;13.90;99.90;;;;;;5032035;28;20191;-71
2021/08/31 04:01:29;;;;;;;18.97;16.27;;;13.90;99.90;;;;;;4999437;28;22142;-72
2021/08/31 04:03:55;;;;;;;21.37;18.20;;;14.00;99.90;;;;;;5037685;28;20276;-72
2021/08/31 04:06:20;;;;;;;22.60;19.10;;;14.10;99.90;;;;;;5020405;28;20267;-72
2021/08/31 04:08:47;;;;;;;20.60;17.77;;;14.10;99.90;;;;;;5029955;28;20195;-72
2021/08/31 04:11:12;;;;;;;21.93;17.80;;;14.20;99.90;;;;;;5028974;28;20471;-72
2021/08/31 04:13:38;;;;;;;18.87;16.83;;;14.20;99.90;;;;;;5041112;28;20464;-71
2021/08/31 04:16:03;;;;;;;18.43;16.43;;;14.20;99.90;;;;;;5028778;28;20991;-71
2021/08/31 04:18:29;;;;;;;30.57;19.20;;;14.30;99.90;;;;;;5032718;28;20191;-71
2021/08/31 04:20:55;;;;;;;18.70;15.57;;;14.50;99.90;;;;;;5032060;28;20667;-71
2021/08/31 04:23:21;;;;;;;21.10;16.93;;;14.30;99.90;;;;;;5035595;28;20191;-71
2021/08/31 04:25:46;;;;;;;21.57;17.87;;;14.20;99.90;;;;;;5034449;28;20476;-71
2021/08/31 04:28:12;;;;;;;21.40;18.10;;;14.20;99.90;;;;;;5038844;28;20233;-72
2021/08/31 04:30:37;;;;;;;20.37;17.60;;;14.60;99.90;;;;;;5011427;28;20345;-71
2021/08/31 04:33:03;;;;;;;19.33;17.23;;;14.40;99.90;;;;;;5038236;28;20549;-72
2021/08/31 04:35:29;;;;;;;21.30;17.00;;;14.30;99.90;;;;;;5022544;28;20562;-71
2021/08/31 04:37:55;;;;;;;18.70;16.03;;;14.20;99.90;;;;;;5027504;28;20221;-71
2021/08/31 04:40:21;;;;;;;22.43;16.53;;;14.10;99.90;;;;;;5038920;28;20720;-71
2021/08/31 04:42:46;;;;;;;23.20;18.23;;;14.10;99.90;;;;;;5009747;28;20262;-73
2021/08/31 04:45:12;;;;;;;24.50;18.03;;;14.20;99.90;;;;;;5035010;28;20540;-71
2021/08/31 04:47:38;;;;;;;21.93;17.70;;;14.00;99.90;;;;;;5038964;28;20185;-72
2021/08/31 04:50:04;;;;;;;24.63;17.63;;;14.20;99.90;;;;;;5031210;28;20217;-72
2021/08/31 04:52:30;;;;;;;21.70;17.80;;;14.00;99.90;;;;;;5036267;28;20182;-71
2021/08/31 04:54:56;;;;;;;23.77;17.83;;;14.10;99.90;;;;;;5038593;28;20461;-72
2021/08/31 04:57:22;;;;;;;19.33;17.33;;;14.10;99.90;;;;;;5029361;28;20899;-72
2021/08/31 04:59:48;;;;;;;26.87;19.10;;;13.90;99.90;;;;;;5032521;28;20486;-72
2021/08/31 05:02:14;;;;;;;22.57;18.67;;;13.80;99.90;;;;;;5036217;28;20464;-72
2021/08/31 05:04:39;;;;;;;23.47;18.57;;;13.90;99.90;;;;;;5031822;28;20198;-72
2021/08/31 05:07:07;;;;;;;25.23;19.80;;;13.90;99.90;;;;;;5028985;28;20552;-71
2021/08/31 05:09:32;;;;;;;24.03;19.57;;;14.00;99.90;;;;;;5033782;28;20187;-71
2021/08/31 05:11:58;;;;;;;19.57;17.30;;;13.90;99.90;;;;;;5030663;28;20980;-71
2021/08/31 05:14:23;;;;;;;21.10;18.77;;;14.00;99.90;;;;;;5039124;28;20278;-72
2021/08/31 05:16:49;;;;;;;34.33;21.73;;;13.90;99.90;;;;;;5035135;28;20191;-72
2021/08/31 05:19:15;;;;;;;29.20;22.03;;;13.80;99.90;;;;;;5033270;28;20687;-72
2021/08/31 05:21:42;;;;;;;24.07;20.53;;;13.90;99.90;;;;;;5019780;28;20902;-72
2021/08/31 05:24:08;;;;;;;29.00;21.00;;;14.00;99.90;;;;;;5035090;28;20186;-73
2021/08/31 05:26:34;;;;;;;31.63;23.27;;;14.00;99.90;;;;;;5034079;28;20440;-72
2021/08/31 05:28:59;;;;;;;27.00;22.83;;;14.10;99.90;;;;;;5046651;28;20218;-72
2021/08/31 05:31:25;;;;;;;26.27;21.40;;;14.20;99.90;;;;;;5020510;28;20278;-72
2021/08/31 05:33:50;;;;;;;35.20;25.47;;;14.30;99.90;;;;;;5005526;28;20438;-72
2021/08/31 05:36:16;;;;;;;34.10;25.10;;;14.30;99.90;;;;;;5034218;28;20194;-72
2021/08/31 05:38:42;;;;;;;33.73;23.77;;;14.30;99.90;;;;;;5033111;28;20193;-72
2021/08/31 05:41:07;;;;;;;32.37;22.30;;;14.80;99.90;;;;;;5032175;28;20712;-72
2021/08/31 05:43:33;;;;;;;31.83;22.83;;;14.80;99.90;;;;;;5024774;28;20213;-72
2021/08/31 05:45:58;;;;;;;28.60;22.17;;;14.60;99.90;;;;;;5021934;28;20313;-72
2021/08/31 05:48:24;;;;;;;26.40;21.40;;;14.60;99.90;;;;;;5029678;28;20806;-72
2021/08/31 05:50:50;;;;;;;31.83;21.90;;;14.60;99.90;;;;;;5009227;28;20198;-71
2021/08/31 05:53:15;;;;;;;31.83;22.33;;;14.60;99.90;;;;;;5021092;28;20187;-72
2021/08/31 05:55:42;;;;;;;29.77;22.10;;;14.60;99.90;;;;;;5044735;28;20471;-72
2021/08/31 05:58:07;;;;;;;33.67;24.03;;;14.40;99.90;;;;;;5048434;28;20195;-71
2021/08/31 06:00:33;;;;;;;37.67;26.07;;;14.30;99.90;;;;;;5042795;28;20457;-71
2021/08/31 06:02:59;;;;;;;30.50;24.23;;;14.30;99.90;;;;;;5046232;28;20214;-71
2021/08/31 06:05:24;;;;;;;41.03;26.40;;;14.30;99.90;;;;;;5033089;28;20785;-71
2021/08/31 06:07:50;;;;;;;38.70;27.33;;;14.30;99.90;;;;;;5039422;28;20588;-71
2021/08/31 06:10:17;;;;;;;41.17;28.87;;;14.30;99.90;;;;;;5046872;28;20175;-71
2021/08/31 06:12:43;;;;;;;44.53;29.50;;;14.30;99.90;;;;;;5046127;28;20179;-71
2021/08/31 06:15:09;;;;;;;48.43;32.13;;;14.30;99.90;;;;;;5046135;28;20454;-71
2021/08/31 06:17:37;;;;;;;51.40;31.53;;;14.20;99.90;;;;;;5011456;28;20190;-71
2021/08/31 06:20:08;;;;;;;50.97;33.67;;;14.30;99.90;;;;;;5045143;28;20203;-71
2021/08/31 06:22:34;;;;;;;55.40;36.30;;;14.30;99.90;;;;;;5047389;28;20984;-72
2021/08/31 06:25:00;;;;;;;59.60;35.30;;;14.10;99.90;;;;;;5044836;28;20850;-72
2021/08/31 06:27:26;;;;;;;63.10;36.67;;;14.10;99.90;;;;;;5050459;28;20464;-71
2021/08/31 06:29:51;;;;;;;65.57;38.13;;;14.40;99.90;;;;;;5052299;28;20475;-71
2021/08/31 06:32:17;;;;;;;63.73;36.03;;;14.30;99.90;;;;;;5040899;28;20269;-72
2021/08/31 06:34:43;;;;;;;54.27;33.93;;;14.40;99.90;;;;;;5055534;28;20210;-71
2021/08/31 06:37:08;;;;;;;55.03;33.90;;;14.20;99.90;;;;;;5050185;28;20182;-71
2021/08/31 06:39:34;;;;;;;59.30;33.30;;;14.20;99.90;;;;;;5052876;28;20189;-72
2021/08/31 06:41:59;;;;;;;64.03;34.50;;;14.20;99.90;;;;;;5047082;28;20221;-71
2021/08/31 06:44:25;;;;;;;60.57;32.77;;;14.20;99.90;;;;;;5051877;28;20261;-72
2021/08/31 06:46:51;;;;;;;59.20;34.47;;;14.20;99.90;;;;;;5046275;28;20198;-71
2021/08/31 06:49:16;;;;;;;74.13;38.43;;;14.20;99.90;;;;;;5046193;28;20266;-72
2021/08/31 06:51:42;;;;;;;83.57;43.10;;;14.30;99.90;;;;;;5047630;28;20199;-71
2021/08/31 06:54:09;;;;;;;91.90;42.27;;;14.00;99.90;;;;;;5048614;28;20589;-71
2021/08/31 06:56:34;;;;;;;95.63;41.50;;;14.00;99.90;;;;;;5003511;28;20461;-71
2021/08/31 06:59:00;;;;;;;81.30;42.20;;;14.00;99.90;;;;;;5012113;28;20461;-71
2021/08/31 07:01:25;;;;;;;92.77;44.87;;;13.90;99.90;;;;;;5041644;28;20571;-72
2021/08/31 07:03:51;;;;;;;96.30;43.90;;;13.90;99.90;;;;;;5045091;28;20946;-71
2021/08/31 07:06:17;;;;;;;96.10;43.90;;;14.00;99.90;;;;;;5042257;28;20290;-72
2021/08/31 07:08:42;;;;;;;92.47;42.13;;;14.00;99.90;;;;;;5045775;28;20204;-72
2021/08/31 07:11:08;;;;;;;84.30;41.57;;;14.00;99.90;;;;;;5042312;28;20187;-72
2021/08/31 07:13:33;;;;;;;88.00;39.43;;;14.00;99.90;;;;;;5051000;28;20229;-72
2021/08/31 07:15:59;;;;;;;100.00;42.17;;;14.00;99.90;;;;;;5049454;28;20653;-73
2021/08/31 07:18:24;;;;;;;87.53;43.20;;;14.00;99.90;;;;;;5036271;28;20189;-73
2021/08/31 07:20:50;;;;;;;99.93;42.30;;;14.10;99.90;;;;;;5044972;28;21192;-73
2021/08/31 07:23:16;;;;;;;81.07;42.10;;;14.10;99.90;;;;;;5041651;28;20214;-72
2021/08/31 07:25:43;;;;;;;88.33;42.87;;;14.10;99.90;;;;;;5049802;28;20194;-72
2021/08/31 07:28:10;;;;;;;94.93;45.37;;;14.10;99.90;;;;;;5049061;28;20270;-72
2021/08/31 07:30:36;;;;;;;89.23;40.57;;;14.20;99.90;;;;;;5031385;28;20437;-72
2021/08/31 07:33:03;;;;;;;82.13;40.87;;;14.20;99.90;;;;;;5046560;28;20514;-72
2021/08/31 07:35:29;;;;;;;81.97;40.53;;;14.10;99.90;;;;;;5040935;28;20233;-73
2021/08/31 07:37:55;;;;;;;90.73;44.43;;;14.20;99.90;;;;;;5046728;28;21433;-72
2021/08/31 07:40:20;;;;;;;87.87;42.30;;;14.20;99.90;;;;;;5030527;28;20811;-72
2021/08/31 07:42:48;;;;;;;88.30;43.07;;;14.20;99.90;;;;;;5029648;28;20194;-72
2021/08/31 07:45:14;;;;;;;87.83;42.87;;;14.50;99.90;;;;;;5021237;28;20232;-71
2021/08/31 07:47:40;;;;;;;85.27;42.60;;;14.60;99.90;;;;;;5034310;28;20670;-72
2021/08/31 07:50:06;;;;;;;86.27;42.37;;;14.60;99.90;;;;;;5040055;28;20867;-72
2021/08/31 07:52:32;;;;;;;85.30;42.10;;;14.50;99.90;;;;;;5049675;28;20499;-72
2021/08/31 07:54:58;;;;;;;71.20;38.60;;;14.70;99.90;;;;;;5052923;28;20535;-72
2021/08/31 07:57:23;;;;;;;69.00;38.43;;;14.80;99.90;;;;;;5052663;28;20535;-72
2021/08/31 07:59:49;;;;;;;73.33;38.40;;;14.60;99.90;;;;;;5039210;28;20210;-72
2021/08/31 08:02:15;;;;;;;73.73;38.80;;;15.10;99.90;;;;;;5038182;28;20198;-72
2021/08/31 08:04:40;;;;;;;61.50;34.30;;;14.90;99.90;;;;;;5038153;28;20699;-72
2021/08/31 08:07:06;;;;;;;73.33;38.03;;;14.90;99.90;;;;;;5023900;28;20648;-72
2021/08/31 08:09:32;;;;;;;64.93;38.60;;;15.10;99.90;;;;;;5035947;28;20210;-72
2021/08/31 08:11:57;;;;;;;54.50;31.90;;;15.00;99.90;;;;;;5029972;28;20214;-72
2021/08/31 08:14:23;;;;;;;60.13;33.53;;;14.80;99.90;;;;;;5045898;28;20197;-71
2021/08/31 08:16:49;;;;;;;61.57;33.40;;;14.90;99.90;;;;;;5032155;28;20195;-72
2021/08/31 08:19:14;;;;;;;57.27;33.67;;;14.80;99.90;;;;;;5013343;28;20453;-71
2021/08/31 08:21:40;;;;;;;58.03;34.40;;;14.70;99.90;;;;;;5039602;28;20356;-72
2021/08/31 08:24:08;;;;;;;57.43;34.17;;;14.60;99.90;;;;;;5035052;28;20651;-72
2021/08/31 08:26:36;;;;;;;60.27;33.80;;;14.70;99.90;;;;;;5038840;28;20514;-70
2021/08/31 08:29:03;;;;;;;64.70;33.20;;;14.60;99.90;;;;;;5047081;28;20862;-70
2021/08/31 08:31:32;;;;;;;59.43;33.13;;;14.60;99.90;;;;;;5032549;28;20449;-71
2021/08/31 08:33:58;;;;;;;61.10;33.20;;;14.80;99.90;;;;;;5042893;28;20871;-71
2021/08/31 08:36:23;;;;;;;49.63;32.17;;;15.00;99.90;;;;;;5046374;28;20460;-71
2021/08/31 08:38:49;;;;;;;53.97;30.07;;;15.20;99.90;;;;;;5043624;28;20670;-71
2021/08/31 08:41:15;;;;;;;53.57;31.23;;;15.10;99.90;;;;;;5050524;28;20218;-71
2021/08/31 08:43:41;;;;;;;50.97;30.77;;;15.20;99.90;;;;;;5039198;28;20183;-72
2021/08/31 08:46:07;;;;;;;54.17;31.50;;;15.40;99.90;;;;;;5042266;28;20198;-71
2021/08/31 08:48:33;;;;;;;55.83;33.70;;;15.80;99.90;;;;;;5045237;28;20602;-71
2021/08/31 08:51:01;;;;;;;54.60;30.03;;;15.70;99.90;;;;;;5028389;28;20904;-71
2021/08/31 08:53:28;;;;;;;55.73;31.33;;;15.90;99.90;;;;;;5033757;28;20450;-71
2021/08/31 08:55:56;;;;;;;49.90;29.43;;;15.80;99.90;;;;;;5038503;28;20830;-71
2021/08/31 08:58:22;;;;;;;47.40;29.67;;;15.60;99.90;;;;;;5019956;28;20456;-71
2021/08/31 09:01:04;;;;;;;53.57;30.47;;;15.70;99.90;;;;;;5035294;28;21178;-71
2021/08/31 09:03:35;;;;;;;45.93;29.90;;;15.30;99.90;;;;;;5048519;28;20453;-71
2021/08/31 09:06:04;;;;;;;46.00;28.40;;;15.30;99.90;;;;;;5022644;28;20460;-72
2021/08/31 09:08:30;;;;;;;45.97;28.10;;;15.70;99.90;;;;;;5035317;28;20510;-71
2021/08/31 09:10:56;;;;;;;40.53;25.63;;;16.10;99.90;;;;;;5036467;28;20673;-71
2021/08/31 09:13:21;;;;;;;32.37;22.07;;;16.40;99.90;;;;;;5042738;28;20577;-71
2021/08/31 09:15:47;;;;;;;30.63;19.97;;;16.40;99.90;;;;;;5039567;28;20766;-71
2021/08/31 09:18:16;;;;;;;32.03;21.00;;;16.10;99.90;;;;;;5048309;28;20307;-71
2021/08/31 09:20:46;;;;;;;31.53;21.43;;;16.10;99.90;;;;;;5031277;28;20478;-71
2021/08/31 09:23:18;;;;;;;30.23;20.27;;;16.10;99.90;;;;;;5051239;28;20491;-71
2021/08/31 09:25:46;;;;;;;30.10;20.33;;;16.10;99.90;;;;;;5038051;28;20492;-71
2021/08/31 09:28:36;;;;;;;27.33;18.17;;;16.30;99.90;;;;;;5040418;28;20777;-72
2021/08/31 09:31:08;;;;;;;24.40;18.70;;;16.30;99.90;;;;;;5040865;28;21200;-71
2021/08/31 09:33:36;;;;;;;25.30;18.60;;;16.20;99.90;;;;;;5042791;28;20962;-72
2021/08/31 09:36:09;;;;;;;27.80;17.80;;;16.40;99.90;;;;;;5041664;28;20460;-72
2021/08/31 09:38:54;;;;;;;27.67;20.50;;;16.70;99.90;;;;;;5051373;28;20607;-71
2021/08/31 09:41:32;;;;;;;23.07;15.97;;;17.00;99.90;;;;;;5040432;28;20448;-71
2021/08/31 09:44:06;;;;;;;21.47;15.33;;;16.80;99.90;;;;;;5038141;28;20436;-72
2021/08/31 09:47:01;;;;;;;23.33;14.70;;;16.80;99.90;;;;;;5036015;28;21080;-72
2021/08/31 09:49:34;;;;;;;19.33;13.60;;;16.90;99.90;;;;;;5045452;28;20564;-72
2021/08/31 09:52:09;;;;;;;21.33;15.07;;;17.00;99.90;;;;;;5040907;28;20549;-72
2021/08/31 09:54:40;;;;;;;22.43;15.27;;;16.80;99.90;;;;;;5041499;28;20833;-72
2021/08/31 09:57:23;;;;;;;21.87;14.23;;;17.10;99.90;;;;;;5038441;28;20541;-71
2021/08/31 09:59:50;;;;;;;21.03;14.67;;;17.20;99.90;;;;;;5021322;28;20483;-72
2021/08/31 10:02:16;;;;;;;16.87;13.50;;;17.00;99.90;;;;;;5042796;28;24099;-72
2021/08/31 10:04:41;;;;;;;16.70;14.00;;;16.90;99.90;;;;;;5038986;28;20477;-72
2021/08/31 10:07:09;;;;;;;17.60;13.20;;;17.10;99.90;;;;;;5040913;28;21194;-71
2021/08/31 10:09:37;;;;;;;20.00;13.97;;;17.30;99.90;;;;;;5040389;28;20685;-72
2021/08/31 10:12:06;;;;;;;17.07;12.93;;;17.50;99.90;;;;;;5041981;28;21527;-71
2021/08/31 10:14:32;;;;;;;15.07;11.37;;;17.70;99.90;;;;;;5033369;28;20445;-72
2021/08/31 10:16:58;;;;;;;15.87;10.43;;;17.90;99.90;;;;;;5034660;28;20515;-71
2021/08/31 10:19:24;;;;;;;14.40;10.70;;;18.20;99.90;;;;;;5040300;28;20190;-72
2021/08/31 10:21:50;;;;;;;17.43;11.93;;;18.20;72.60;;;;;;5034690;28;20485;-71
2021/08/31 10:24:15;;;;;;;16.30;11.67;;;18.50;79.50;;;;;;5032350;28;20266;-71
2021/08/31 10:26:41;;;;;;;16.47;11.90;;;18.30;42.60;;;;;;5040716;28;20392;-72
2021/08/31 10:29:13;;;;;;;19.50;12.60;;;18.10;47.70;;;;;;5043796;28;20183;-71
2021/08/31 10:31:42;;;;;;;17.60;12.33;;;17.90;29.10;;;;;;5017390;28;20616;-71
2021/08/31 10:34:31;;;;;;;16.00;12.30;;;17.80;75.00;;;;;;5026705;28;20468;-72
2021/08/31 10:37:15;;;;;;;15.90;12.13;;;17.80;71.70;;;;;;5028409;28;20624;-72
2021/08/31 10:39:55;;;;;;;16.90;11.43;;;17.70;30.00;;;;;;5035706;28;20491;-71
2021/08/31 10:42:24;;;;;;;13.60;11.10;;;17.80;1.00;;;;;;5022124;28;22740;-72
2021/08/31 10:44:50;;;;;;;15.00;11.40;;;18.10;8.60;;;;;;5063544;28;20481;-72
2021/08/31 10:47:38;;;;;;;13.73;11.23;;;18.50;1.00;;;;;;5044255;28;20499;-72
2021/08/31 10:50:05;;;;;;;16.53;10.93;;;18.80;1.00;;;;;;5040565;28;20462;-73
2021/08/31 10:52:43;;;;;;;14.37;10.07;;;18.50;1.00;;;;;;5048968;28;20463;-72
2021/08/31 10:55:23;;;;;;;12.60;8.83;;;18.50;1.00;;;;;;5028701;28;20463;-72
2021/08/31 10:57:51;;;;;;;13.93;10.63;;;18.60;1.00;;;;;;5047868;28;20509;-72
2021/08/31 11:00:16;;;;;;;10.70;8.67;;;18.60;1.00;;;;;;5030635;28;20830;-72
2021/08/31 11:02:48;;;;;;;11.83;9.90;;;18.70;1.00;;;;;;5032042;28;20496;-71
2021/08/31 11:05:26;;;;;;;13.43;9.93;;;18.90;1.00;;;;;;5016149;28;20202;-72
2021/08/31 11:07:59;;;;;;;16.67;10.87;;;18.80;1.00;;;;;;5032149;28;20520;-71
2021/08/31 11:10:27;;;;;;;14.67;10.10;;;18.60;1.00;;;;;;5037161;28;20511;-71
2021/08/31 11:12:57;;;;;;;14.67;9.37;;;18.60;1.00;;;;;;5029584;28;20463;-71
2021/08/31 11:15:27;;;;;;;12.90;9.40;;;18.80;1.00;;;;;;5043752;28;21044;-71
2021/08/31 11:17:54;;;;;;;14.43;9.10;;;19.10;1.00;;;;;;5032606;28;21035;-71
2021/08/31 11:20:25;;;;;;;10.93;7.67;;;19.40;1.00;;;;;;5034225;28;20552;-71
2021/08/31 11:23:11;;;;;;;11.30;6.87;;;19.50;1.00;;;;;;5043249;28;21931;-71
2021/08/31 11:25:44;;;;;;;10.77;7.70;;;19.60;1.00;;;;;;5037269;28;20464;-71
2021/08/31 11:28:18;;;;;;;12.93;8.70;;;19.70;1.00;;;;;;5033153;28;20453;-71
2021/08/31 11:30:58;;;;;;;13.80;8.80;;;19.70;1.00;;;;;;5032779;28;20474;-71
2021/08/31 11:33:39;;;;;;;14.20;8.77;;;19.90;1.00;;;;;;5033887;28;20468;-71
2021/08/31 11:36:12;;;;;;;16.00;8.43;;;19.80;1.00;;;;;;5038243;28;20478;-72
2021/08/31 11:38:56;;;;;;;19.67;9.27;;;19.50;1.00;;;;;;5039440;28;20575;-71
2021/08/31 11:41:43;;;;;;;20.80;8.10;;;19.40;1.00;;;;;;5020795;28;21035;-72
2021/08/31 11:44:17;;;;;;;19.10;6.90;;;19.20;1.00;;;;;;5030713;28;20448;-71
2021/08/31 11:46:46;;;;;;;26.67;7.20;;;19.10;1.00;;;;;;5039031;28;20548;-72
2021/08/31 11:49:16;;;;;;;21.60;7.03;;;19.00;1.00;;;;;;5039572;28;20844;-71
2021/08/31 11:52:02;;;;;;;21.33;7.67;;;19.10;1.00;;;;;;5046842;28;21221;-72
2021/08/31 11:54:55;;;;;;;24.43;8.37;;;19.40;1.00;;;;;;5034339;28;20867;-72
2021/08/31 11:57:29;;;;;;;23.00;7.50;;;19.60;1.00;;;;;;5045812;28;20500;-71
2021/08/31 11:59:54;;;;;;;24.03;8.00;;;19.60;1.00;;;;;;5039725;28;20452;-71
2021/08/31 12:02:22;;;;;;;22.93;7.30;;;19.40;1.00;;;;;;5030687;28;20504;-72
2021/08/31 12:04:54;;;;;;;20.40;6.93;;;19.40;1.00;;;;;;5025610;28;20225;-72
2021/08/31 12:07:24;;;;;;;21.40;7.00;;;19.30;1.00;;;;;;5042849;28;20628;-72
2021/08/31 12:09:52;;;;;;;23.83;7.47;;;19.60;1.00;;;;;;5041543;28;20996;-72
2021/08/31 12:12:19;;;;;;;21.97;7.60;;;19.90;1.00;;;;;;5038491;28;20445;-71
2021/08/31 12:14:48;;;;;;;21.50;7.67;;;20.00;1.00;;;;;;5042146;28;20532;-71
2021/08/31 12:17:30;;;;;;;23.13;7.43;;;19.80;1.00;;;;;;5037717;28;20849;-71
2021/08/31 12:20:25;;;;;;;20.20;7.20;;;19.50;1.00;;;;;;5041380;28;20484;-72
2021/08/31 12:22:59;;;;;;;20.93;7.00;;;19.50;1.00;;;;;;5035301;28;20934;-71
2021/08/31 12:25:24;;;;;;;21.33;6.67;;;19.80;1.00;;;;;;5033698;28;20450;-71
2021/08/31 12:27:53;;;;;;;24.40;7.50;;;20.00;1.00;;;;;;5043837;28;20459;-72
2021/08/31 12:30:43;;;;;;;20.93;6.80;;;20.10;1.00;;;;;;5029796;28;20265;-72
2021/08/31 12:33:11;;;;;;;23.07;7.80;;;20.20;1.00;;;;;;5023059;28;21034;-70
2021/08/31 12:38:16;;;;;;;23.30;7.33;;;20.50;1.00;;;;;;5029169;28;20448;-72